Time;durP1;ratioP1;P1;durP2;ratioP2;P2;SDS_P1;SDS_P2;PMS_P1;PMS_P2;Temp;Humidity;BMP_temperature;BMP_pressure;BME280_temperature;BME280_humidity;BME280_pressure;Samples;Min_cycle;Max_cycle;Signal;HPM_P1;HPM_P2
2021/03/12 00:02:15;;;;;;;1999.90;999.90;;;;;;;;;;5136772;27;20232;-33
2021/03/12 00:05:01;;;;;;;1999.90;999.90;;;;;;;;;;5141052;27;20254;-32
2021/03/12 00:07:47;;;;;;;1999.90;999.90;;;;;;;;;;5141139;27;20537;-34
2021/03/12 00:10:33;;;;;;;1999.90;999.90;;;;;;;;;;5140674;27;20232;-35
2021/03/12 00:13:20;;;;;;;1999.90;999.90;;;;;;;;;;5140902;27;20198;-34
2021/03/12 00:16:06;;;;;;;1999.90;999.90;;;;;;;;;;5141092;27;20252;-35
2021/03/12 00:18:55;;;;;;;1999.90;999.90;;;;;;;;;;5140678;27;20360;-32
2021/03/12 00:21:41;;;;;;;1999.90;999.90;;;;;;;;;;5140532;27;20205;-33
2021/03/12 00:24:27;;;;;;;1999.90;999.90;;;;;;;;;;5141517;27;20273;-34
2021/03/12 00:27:13;;;;;;;1999.90;999.90;;;;;;;;;;5140576;27;20599;-36
2021/03/12 00:29:59;;;;;;;1999.90;999.90;;;;;;;;;;5140226;27;20286;-34
2021/03/12 00:32:44;;;;;;;1999.90;999.90;;;;;;;;;;5139861;27;20293;-33
2021/03/12 00:35:32;;;;;;;1999.90;999.90;;;;;;;;;;5140519;27;20198;-37
2021/03/12 00:38:18;;;;;;;1999.90;999.90;;;;;;;;;;5140496;27;20201;-33
2021/03/12 00:41:06;;;;;;;1999.90;999.90;;;;;;;;;;5140250;27;20259;-37
2021/03/12 00:43:52;;;;;;;1999.90;999.90;;;;;;;;;;5140128;27;20316;-32
2021/03/12 00:46:38;;;;;;;1999.90;999.90;;;;;;;;;;5140403;27;20201;-37
2021/03/12 00:49:23;;;;;;;1999.90;999.90;;;;;;;;;;5140079;27;20241;-35
2021/03/12 00:52:10;;;;;;;1999.90;999.90;;;;;;;;;;5140223;27;20203;-35
2021/03/12 00:54:56;;;;;;;1999.90;999.90;;;;;;;;;;5140280;27;20206;-32
2021/03/12 00:57:42;;;;;;;1999.90;999.90;;;;;;;;;;5140042;27;20203;-35
2021/03/12 01:00:29;;;;;;;1999.90;999.90;;;;;;;;;;5140162;27;20255;-34
2021/03/12 01:03:16;;;;;;;1999.90;999.90;;;;;;;;;;5139752;27;20287;-32
2021/03/12 01:06:02;;;;;;;1999.90;999.90;;;;;;;;;;5139475;27;20202;-33
2021/03/12 01:08:49;;;;;;;1999.90;999.90;;;;;;;;;;5139562;27;20657;-34
2021/03/12 01:11:34;;;;;;;1999.90;999.90;;;;;;;;;;5140753;27;20251;-36
2021/03/12 01:14:20;;;;;;;1999.90;999.90;;;;;;;;;;5139534;27;20673;-35
2021/03/12 01:17:06;;;;;;;1999.90;999.90;;;;;;;;;;5139636;27;20201;-36
2021/03/12 01:19:52;;;;;;;1999.90;999.90;;;;;;;;;;5139639;27;20286;-37
2021/03/12 01:22:38;;;;;;;1999.90;999.90;;;;;;;;;;5139381;27;20285;-35
2021/03/12 01:25:28;;;;;;;1999.90;999.90;;;;;;;;;;5139268;27;20202;-35
2021/03/12 01:28:14;;;;;;;1999.90;999.90;;;;;;;;;;5139216;27;20295;-33
2021/03/12 01:31:00;;;;;;;1999.90;999.90;;;;;;;;;;5139410;27;20198;-39
2021/03/12 01:33:45;;;;;;;1999.90;999.90;;;;;;;;;;5139011;27;20205;-34
2021/03/12 01:36:31;;;;;;;1999.90;999.90;;;;;;;;;;5138712;27;20306;-36
2021/03/12 01:39:17;;;;;;;1999.90;999.90;;;;;;;;;;5139020;27;20283;-39
2021/03/12 01:42:04;;;;;;;1999.90;999.90;;;;;;;;;;5139059;27;20201;-35
2021/03/12 01:44:50;;;;;;;1999.90;999.90;;;;;;;;;;5138924;27;20480;-33
2021/03/12 01:47:36;;;;;;;1999.90;999.90;;;;;;;;;;5138724;27;20245;-37
2021/03/12 01:50:23;;;;;;;1999.90;999.90;;;;;;;;;;5138724;27;20336;-37
2021/03/12 01:53:09;;;;;;;1999.90;999.90;;;;;;;;;;5138888;27;20198;-37
2021/03/12 01:55:56;;;;;;;1999.90;999.90;;;;;;;;;;5138987;27;20199;-36
2021/03/12 01:58:44;;;;;;;1999.90;999.90;;;;;;;;;;5138876;27;20743;-35
2021/03/12 02:01:31;;;;;;;1999.90;999.90;;;;;;;;;;5138628;27;20203;-39
2021/03/12 02:04:20;;;;;;;1999.90;999.90;;;;;;;;;;5138701;27;20729;-37
2021/03/12 02:07:06;;;;;;;1999.90;999.90;;;;;;;;;;5138746;27;20203;-34
2021/03/12 02:09:51;;;;;;;1999.90;999.90;;;;;;;;;;5138778;27;20231;-35
2021/03/12 02:12:39;;;;;;;1999.90;999.90;;;;;;;;;;5138717;27;20201;-37
2021/03/12 02:15:28;;;;;;;1999.90;999.90;;;;;;;;;;5138311;27;20329;-36
2021/03/12 02:18:16;;;;;;;1999.90;999.90;;;;;;;;;;5138256;27;20202;-37
2021/03/12 02:21:07;;;;;;;1999.90;999.90;;;;;;;;;;5138680;27;20190;-36
2021/03/12 02:23:59;;;;;;;1999.90;999.90;;;;;;;;;;5138147;27;20309;-35
2021/03/12 02:27:05;;;;;;;1999.90;999.90;;;;;;;;;;5138463;27;20550;-36
2021/03/12 02:29:52;;;;;;;1999.90;999.90;;;;;;;;;;5138481;27;20228;-37
2021/03/12 02:32:42;;;;;;;1999.90;999.90;;;;;;;;;;5138275;27;20296;-36
2021/03/12 02:35:28;;;;;;;1999.90;999.90;;;;;;;;;;5138125;27;20211;-37
2021/03/12 02:38:14;;;;;;;1999.90;999.90;;;;;;;;;;5138367;27;20352;-35
2021/03/12 02:41:01;;;;;;;1999.90;999.90;;;;;;;;;;5138267;27;20192;-35
2021/03/12 02:43:53;;;;;;;1999.90;999.90;;;;;;;;;;5138411;27;20487;-34
2021/03/12 02:46:40;;;;;;;1999.90;999.90;;;;;;;;;;5137640;27;20203;-35
2021/03/12 02:49:27;;;;;;;1999.90;999.90;;;;;;;;;;5137710;27;20586;-36
2021/03/12 02:52:13;;;;;;;1999.90;999.90;;;;;;;;;;5137146;27;20303;-37
2021/03/12 02:54:59;;;;;;;1999.90;999.90;;;;;;;;;;5137551;27;20200;-38
2021/03/12 02:57:45;;;;;;;1999.90;999.90;;;;;;;;;;5136761;28;20305;-35
2021/03/12 03:00:31;;;;;;;1999.90;999.90;;;;;;;;;;5137596;28;20488;-35
2021/03/12 03:03:17;;;;;;;1999.90;999.90;;;;;;;;;;5137853;28;20662;-37
2021/03/12 03:06:05;;;;;;;1999.90;999.90;;;;;;;;;;5138177;27;20204;-37
2021/03/12 03:08:51;;;;;;;1999.90;999.90;;;;;;;;;;5138145;28;20296;-36
2021/03/12 03:11:37;;;;;;;1999.90;999.90;;;;;;;;;;5137997;28;20260;-35
2021/03/12 03:14:23;;;;;;;1999.90;999.90;;;;;;;;;;5137431;28;20657;-38
2021/03/12 03:17:12;;;;;;;1999.90;999.90;;;;;;;;;;5137641;28;20230;-38
2021/03/12 03:19:58;;;;;;;1999.90;999.90;;;;;;;;;;5137822;28;20200;-38
2021/03/12 03:22:45;;;;;;;1999.90;999.90;;;;;;;;;;5138082;28;20276;-34
2021/03/12 03:25:31;;;;;;;1999.90;999.90;;;;;;;;;;5137657;28;20195;-33
2021/03/12 03:28:17;;;;;;;1999.90;999.90;;;;;;;;;;5137847;28;20220;-34
2021/03/12 03:31:04;;;;;;;1999.90;999.90;;;;;;;;;;5137451;28;20207;-35
2021/03/12 03:33:50;;;;;;;1999.90;999.90;;;;;;;;;;5137851;28;20295;-34
2021/03/12 03:36:36;;;;;;;1999.90;999.90;;;;;;;;;;5137751;28;20200;-36
2021/03/12 03:39:22;;;;;;;1999.90;999.90;;;;;;;;;;5140735;27;20199;-36
2021/03/12 03:42:09;;;;;;;1999.90;999.90;;;;;;;;;;5141798;27;20588;-33
2021/03/12 03:44:56;;;;;;;1999.90;999.90;;;;;;;;;;5141043;27;20200;-34
2021/03/12 03:47:42;;;;;;;1999.90;999.90;;;;;;;;;;5141252;27;20199;-35
2021/03/12 03:50:30;;;;;;;1999.90;999.90;;;;;;;;;;5140748;27;20286;-34
2021/03/12 03:53:16;;;;;;;1999.90;999.90;;;;;;;;;;5141239;27;20639;-39
2021/03/12 03:56:04;;;;;;;1999.90;999.90;;;;;;;;;;5141140;27;20203;-36
2021/03/12 03:58:51;;;;;;;1999.90;999.90;;;;;;;;;;5141293;27;20198;-34
2021/03/12 04:01:37;;;;;;;1999.90;999.90;;;;;;;;;;5141219;27;20607;-34
2021/03/12 04:04:24;;;;;;;1999.90;999.90;;;;;;;;;;5141070;27;20203;-33
2021/03/12 04:07:11;;;;;;;1999.90;999.90;;;;;;;;;;5141305;27;20215;-33
2021/03/12 04:09:57;;;;;;;1999.90;999.90;;;;;;;;;;5140666;27;20571;-34
2021/03/12 04:12:44;;;;;;;1999.90;999.90;;;;;;;;;;5140627;27;20290;-34
2021/03/12 04:15:30;;;;;;;1999.90;999.90;;;;;;;;;;5140644;27;20488;-36
2021/03/12 04:18:16;;;;;;;1999.90;999.90;;;;;;;;;;5141369;27;20204;-34
2021/03/12 04:21:03;;;;;;;1999.90;999.90;;;;;;;;;;5140976;27;20202;-33
2021/03/12 04:23:49;;;;;;;1999.90;999.90;;;;;;;;;;5140665;27;20194;-35
2021/03/12 04:26:38;;;;;;;1999.90;999.90;;;;;;;;;;5140719;27;20195;-34
2021/03/12 04:29:24;;;;;;;1999.90;999.90;;;;;;;;;;5139912;27;20356;-36
2021/03/12 04:32:10;;;;;;;1999.90;999.90;;;;;;;;;;5140839;27;20209;-32
2021/03/12 04:34:56;;;;;;;1999.90;999.90;;;;;;;;;;5140247;27;20191;-35
2021/03/12 04:37:42;;;;;;;1999.90;999.90;;;;;;;;;;5140451;27;20203;-38
2021/03/12 04:40:29;;;;;;;1999.90;999.90;;;;;;;;;;5140570;27;20595;-35
2021/03/12 04:43:15;;;;;;;1999.90;999.90;;;;;;;;;;5140199;27;20260;-35
2021/03/12 04:46:01;;;;;;;1999.90;999.90;;;;;;;;;;5140520;27;20204;-38
2021/03/12 04:48:48;;;;;;;1999.90;999.90;;;;;;;;;;5139801;27;20449;-36
2021/03/12 04:51:35;;;;;;;1999.90;999.90;;;;;;;;;;5140312;27;20485;-33
2021/03/12 04:54:21;;;;;;;1999.90;999.90;;;;;;;;;;5139932;27;20219;-38
2021/03/12 04:57:07;;;;;;;1999.90;999.90;;;;;;;;;;5139903;27;20203;-33
2021/03/12 04:59:54;;;;;;;1999.90;999.90;;;;;;;;;;5140094;27;20585;-32
2021/03/12 05:02:40;;;;;;;1999.90;999.90;;;;;;;;;;5139322;27;20521;-32
2021/03/12 05:05:26;;;;;;;1999.90;999.90;;;;;;;;;;5139851;27;20200;-37
2021/03/12 05:08:13;;;;;;;1999.90;999.90;;;;;;;;;;5139743;27;20198;-37
2021/03/12 05:11:00;;;;;;;1999.90;999.90;;;;;;;;;;5139358;27;20246;-34
2021/03/12 05:13:49;;;;;;;1999.90;999.90;;;;;;;;;;5139784;27;20194;-36
2021/03/12 05:16:35;;;;;;;1999.90;999.90;;;;;;;;;;5139599;27;20198;-36
2021/03/12 05:19:22;;;;;;;1999.90;999.90;;;;;;;;;;5139487;27;20465;-38
2021/03/12 05:22:10;;;;;;;1999.90;999.90;;;;;;;;;;5139736;27;20268;-37
2021/03/12 05:24:58;;;;;;;1999.90;999.90;;;;;;;;;;5139514;27;20200;-31
2021/03/12 05:27:44;;;;;;;1999.90;999.90;;;;;;;;;;5139202;27;20200;-33
2021/03/12 05:30:30;;;;;;;1999.90;999.90;;;;;;;;;;5139402;27;20328;-39
2021/03/12 05:33:16;;;;;;;1999.90;999.90;;;;;;;;;;5139235;27;20202;-35
2021/03/12 05:36:05;;;;;;;1999.90;999.90;;;;;;;;;;5140035;27;20218;-35
2021/03/12 05:38:51;;;;;;;1999.90;999.90;;;;;;;;;;5139172;27;20596;-36
2021/03/12 05:41:37;;;;;;;1999.90;999.90;;;;;;;;;;5138463;27;20424;-39
2021/03/12 05:44:23;;;;;;;1999.90;999.90;;;;;;;;;;5138925;27;20283;-39
2021/03/12 05:47:09;;;;;;;1999.90;999.90;;;;;;;;;;5139063;27;20206;-37
2021/03/12 05:49:58;;;;;;;1999.90;999.90;;;;;;;;;;5138329;27;20253;-40
2021/03/12 05:52:45;;;;;;;1999.90;999.90;;;;;;;;;;5137881;27;20208;-40
2021/03/12 05:55:31;;;;;;;1999.90;999.90;;;;;;;;;;5138678;27;20201;-39
2021/03/12 05:58:18;;;;;;;1999.90;999.90;;;;;;;;;;5138331;27;20602;-39
2021/03/12 06:01:06;;;;;;;1999.90;999.90;;;;;;;;;;5138663;27;20325;-38
2021/03/12 06:03:53;;;;;;;1999.90;999.90;;;;;;;;;;5137763;27;20293;-39
2021/03/12 06:06:39;;;;;;;1999.90;999.90;;;;;;;;;;5138477;27;20492;-41
2021/03/12 06:09:24;;;;;;;1999.90;999.90;;;;;;;;;;5138120;27;20208;-40
2021/03/12 06:12:11;;;;;;;1999.90;999.90;;;;;;;;;;5136878;27;20222;-41
2021/03/12 06:14:57;;;;;;;1999.90;999.90;;;;;;;;;;5137383;27;20195;-38
2021/03/12 06:17:46;;;;;;;1999.90;999.90;;;;;;;;;;5135482;27;20200;-40
2021/03/12 06:20:35;;;;;;;1999.90;999.90;;;;;;;;;;5138802;27;20235;-40
2021/03/12 06:23:39;;;;;;;1999.90;999.90;;;;;;;;;;5137323;27;20205;-39
2021/03/12 06:26:43;;;;;;;1999.90;999.90;;;;;;;;;;5137216;27;20199;-41
2021/03/12 06:29:31;;;;;;;1999.90;999.90;;;;;;;;;;5136763;27;20349;-41
2021/03/12 06:32:35;;;;;;;1999.90;999.90;;;;;;;;;;5137310;27;20304;-39
2021/03/12 06:35:22;;;;;;;1999.90;999.90;;;;;;;;;;5137173;27;20196;-38
2021/03/12 06:38:10;;;;;;;1999.90;999.90;;;;;;;;;;5137988;27;20269;-40
2021/03/12 06:40:56;;;;;;;1999.90;999.90;;;;;;;;;;5137962;27;20286;-40
2021/03/12 06:43:42;;;;;;;1999.90;999.90;;;;;;;;;;5137725;27;20592;-40
2021/03/12 06:46:44;;;;;;;1999.90;999.90;;;;;;;;;;5137558;27;20259;-40
2021/03/12 06:49:30;;;;;;;1999.90;999.90;;;;;;;;;;5137753;27;20198;-41
2021/03/12 06:52:16;;;;;;;1999.90;999.90;;;;;;;;;;5137196;27;20193;-40
2021/03/12 06:55:07;;;;;;;1999.90;999.90;;;;;;;;;;5137501;27;20201;-40
2021/03/12 06:58:08;;;;;;;1999.90;999.90;;;;;;;;;;5137177;28;20206;-39
2021/03/12 07:00:57;;;;;;;1999.90;999.90;;;;;;;;;;5136776;28;20236;-43
2021/03/12 07:04:08;;;;;;;1999.90;999.90;;;;;;;;;;5137317;28;20238;-43
2021/03/12 07:06:57;;;;;;;1999.90;999.90;;;;;;;;;;5137505;28;20198;-42
2021/03/12 07:09:56;;;;;;;1999.90;999.90;;;;;;;;;;5137534;28;20311;-41
2021/03/12 07:12:46;;;;;;;1999.90;999.90;;;;;;;;;;5137299;27;20224;-42
2021/03/12 07:15:38;;;;;;;1999.90;999.90;;;;;;;;;;5124038;27;20200;-42
2021/03/12 07:18:26;;;;;;;1999.90;999.90;;;;;;;;;;5121558;28;20198;-42
2021/03/12 07:21:13;;;;;;;1999.90;999.90;;;;;;;;;;5121165;28;20374;-42
2021/03/12 07:23:59;;;;;;;1999.90;999.90;;;;;;;;;;5120575;28;20198;-42
2021/03/12 07:26:46;;;;;;;1999.90;999.90;;;;;;;;;;5120873;28;20269;-43
2021/03/12 07:29:33;;;;;;;1999.90;999.90;;;;;;;;;;5121395;28;20336;-42
2021/03/12 07:32:25;;;;;;;1999.90;999.90;;;;;;;;;;5120971;27;20596;-43
2021/03/12 07:35:13;;;;;;;1999.90;999.90;;;;;;;;;;5121225;28;20198;-42
2021/03/12 07:37:59;;;;;;;1999.90;999.90;;;;;;;;;;5120341;28;20197;-42
2021/03/12 07:40:45;;;;;;;1999.90;999.90;;;;;;;;;;5133182;27;20260;-42
2021/03/12 07:43:33;;;;;;;1999.90;999.90;;;;;;;;;;5140631;27;20194;-42
2021/03/12 07:46:25;;;;;;;1999.90;999.90;;;;;;;;;;5139968;27;20202;-43
2021/03/12 07:49:45;;;;;;;1999.90;999.90;;;;;;;;;;5127781;27;20201;-38
2021/03/12 07:52:47;;;;;;;1999.90;999.90;;;;;;;;;;5083402;28;20200;-42
2021/03/12 07:56:01;;;;;;;1999.90;999.90;;;;;;;;;;5119551;28;20209;-42
2021/03/12 07:58:57;;;;;;;1999.90;999.90;;;;;;;;;;5120038;28;20198;-41
2021/03/12 08:01:50;;;;;;;1999.90;999.90;;;;;;;;;;5119460;28;20206;-42
2021/03/12 08:04:37;;;;;;;1999.90;999.90;;;;;;;;;;5078940;28;20357;-42
2021/03/12 08:07:32;;;;;;;1999.90;999.90;;;;;;;;;;5078552;28;20204;-42
2021/03/12 08:10:22;;;;;;;1999.90;999.90;;;;;;;;;;5077902;28;20302;-42
2021/03/12 08:13:22;;;;;;;1999.90;999.90;;;;;;;;;;5078358;28;20200;-40
2021/03/12 08:16:11;;;;;;;1999.90;999.90;;;;;;;;;;5079315;28;20254;-42
2021/03/12 08:19:18;;;;;;;1999.90;999.90;;;;;;;;;;5080985;28;20451;-42
2021/03/12 08:22:25;;;;;;;1999.90;999.90;;;;;;;;;;5079674;28;20208;-41
2021/03/12 08:25:12;;;;;;;1999.90;999.90;;;;;;;;;;5091173;28;20206;-40
2021/03/12 08:28:05;;;;;;;1999.90;999.90;;;;;;;;;;5099114;28;20199;-42
2021/03/12 08:30:55;;;;;;;1999.90;999.90;;;;;;;;;;5098607;28;20346;-41
2021/03/12 08:33:41;;;;;;;1999.90;999.90;;;;;;;;;;5098753;28;20350;-42
2021/03/12 08:36:29;;;;;;;1999.90;999.90;;;;;;;;;;5097359;28;20207;-42
2021/03/12 08:39:25;;;;;;;1999.90;999.90;;;;;;;;;;5088233;28;20617;-43
2021/03/12 08:42:24;;;;;;;1999.90;999.90;;;;;;;;;;5097770;28;20262;-42
2021/03/12 08:45:13;;;;;;;1999.90;999.90;;;;;;;;;;5098846;28;20199;-42
2021/03/12 08:48:06;;;;;;;1999.90;999.90;;;;;;;;;;5099290;28;20289;-42
2021/03/12 08:50:56;;;;;;;1999.90;999.90;;;;;;;;;;5098940;28;20194;-41
2021/03/12 08:53:45;;;;;;;1999.90;999.90;;;;;;;;;;5099044;28;20218;-40
2021/03/12 08:56:34;;;;;;;1999.90;999.90;;;;;;;;;;5099044;28;20289;-43
2021/03/12 08:59:28;;;;;;;1999.90;999.90;;;;;;;;;;5098376;28;20202;-42
2021/03/12 09:02:22;;;;;;;1999.90;999.90;;;;;;;;;;5100801;27;20199;-42
2021/03/12 09:05:26;;;;;;;1999.90;999.90;;;;;;;;;;5139357;27;20203;-41
2021/03/12 09:08:13;;;;;;;1999.90;999.90;;;;;;;;;;5139289;27;20201;-41
2021/03/12 09:11:04;;;;;;;1999.90;999.90;;;;;;;;;;5139095;27;20244;-41
2021/03/12 09:13:51;;;;;;;1999.90;999.90;;;;;;;;;;5139228;27;20604;-43
2021/03/12 09:16:39;;;;;;;1999.90;999.90;;;;;;;;;;5123950;27;20276;-42
2021/03/12 09:19:27;;;;;;;1999.90;999.90;;;;;;;;;;5119109;28;20199;-42
2021/03/12 09:22:12;;;;;;;1999.90;999.90;;;;;;;;;;5119468;27;20630;-40
2021/03/12 09:25:01;;;;;;;1999.90;999.90;;;;;;;;;;5118583;28;20335;-42
2021/03/12 09:27:56;;;;;;;1999.90;999.90;;;;;;;;;;5130703;27;20209;-43
2021/03/12 09:30:43;;;;;;;1999.90;999.90;;;;;;;;;;5118759;28;20295;-42
2021/03/12 09:33:31;;;;;;;1999.90;999.90;;;;;;;;;;5118282;28;20219;-43
2021/03/12 09:36:40;;;;;;;1999.90;999.90;;;;;;;;;;5117731;28;20642;-42
2021/03/12 09:39:34;;;;;;;1999.90;999.90;;;;;;;;;;5118746;28;20199;-43
2021/03/12 09:42:26;;;;;;;1999.90;999.90;;;;;;;;;;5118344;28;20269;-40
2021/03/12 09:45:23;;;;;;;1999.90;999.90;;;;;;;;;;5118746;28;20332;-43
2021/03/12 09:48:19;;;;;;;1999.90;999.90;;;;;;;;;;5118142;28;20218;-42
2021/03/12 09:51:10;;;;;;;1999.90;999.90;;;;;;;;;;5118007;28;20208;-40
2021/03/12 09:53:56;;;;;;;1999.90;999.90;;;;;;;;;;5118177;28;20205;-37
2021/03/12 09:56:46;;;;;;;1999.90;999.90;;;;;;;;;;5117414;28;20202;-39
2021/03/12 09:59:33;;;;;;;1999.90;999.90;;;;;;;;;;5117130;28;20600;-39
2021/03/12 10:02:48;;;;;;;1999.90;999.90;;;;;;;;;;5117170;28;20504;-36
2021/03/12 10:05:33;;;;;;;1999.90;999.90;;;;;;;;;;5116833;28;20411;-39
2021/03/12 10:08:20;;;;;;;1999.90;999.90;;;;;;;;;;5118244;28;20605;-40
2021/03/12 10:11:05;;;;;;;1999.90;999.90;;;;;;;;;;5118730;28;20684;-36
2021/03/12 10:14:23;;;;;;;1999.90;999.90;;;;;;;;;;5118384;28;20532;-39
2021/03/12 10:17:23;;;;;;;1999.90;999.90;;;;;;;;;;5116795;28;20202;-38
2021/03/12 10:20:19;;;;;;;1999.90;999.90;;;;;;;;;;5116462;28;20635;-36
2021/03/12 10:23:07;;;;;;;1999.90;999.90;;;;;;;;;;5116755;28;20194;-40
2021/03/12 10:25:57;;;;;;;1999.90;999.90;;;;;;;;;;5118183;28;20318;-41
2021/03/12 10:28:46;;;;;;;1999.90;999.90;;;;;;;;;;5125599;27;20298;-36
2021/03/12 10:31:39;;;;;;;1999.90;999.90;;;;;;;;;;5138257;27;20251;-40
2021/03/12 10:34:40;;;;;;;1999.90;999.90;;;;;;;;;;5137068;27;20282;-40
2021/03/12 10:37:33;;;;;;;1999.90;999.90;;;;;;;;;;5137187;27;20202;-38
2021/03/12 10:40:20;;;;;;;1999.90;999.90;;;;;;;;;;5136902;27;20363;-39
2021/03/12 10:43:14;;;;;;;1999.90;999.90;;;;;;;;;;5137568;27;20706;-40
2021/03/12 10:46:00;;;;;;;1999.90;999.90;;;;;;;;;;5137091;27;20194;-40
2021/03/12 10:48:47;;;;;;;1999.90;999.90;;;;;;;;;;5135797;27;20668;-34
2021/03/12 10:51:35;;;;;;;1999.90;999.90;;;;;;;;;;5137334;27;20461;-40
2021/03/12 10:54:28;;;;;;;1999.90;999.90;;;;;;;;;;5136852;27;20239;-41
2021/03/12 10:57:18;;;;;;;1999.90;999.90;;;;;;;;;;5137433;27;20367;-41
2021/03/12 11:00:12;;;;;;;1999.90;999.90;;;;;;;;;;5137448;28;20628;-38
2021/03/12 11:03:02;;;;;;;1999.90;999.90;;;;;;;;;;5137078;28;20322;-38
2021/03/12 11:05:49;;;;;;;1999.90;999.90;;;;;;;;;;5137093;28;20198;-40
2021/03/12 11:08:38;;;;;;;1999.90;999.90;;;;;;;;;;5136710;28;20483;-32
2021/03/12 11:11:26;;;;;;;1999.90;999.90;;;;;;;;;;5136857;28;20332;-37
2021/03/12 11:14:12;;;;;;;1999.90;999.90;;;;;;;;;;5137806;27;20436;-34
2021/03/12 11:17:01;;;;;;;1999.90;999.90;;;;;;;;;;5137542;28;20198;-36
2021/03/12 11:19:49;;;;;;;1999.90;999.90;;;;;;;;;;5136400;28;20359;-38
2021/03/12 11:22:36;;;;;;;1999.90;999.90;;;;;;;;;;5135599;28;20201;-32
2021/03/12 11:25:21;;;;;;;1999.90;999.90;;;;;;;;;;5135708;28;20449;-36
2021/03/12 11:28:07;;;;;;;1999.90;999.90;;;;;;;;;;5135210;28;20599;-36
2021/03/12 11:30:53;;;;;;;1999.90;999.90;;;;;;;;;;5136487;28;20270;-34
2021/03/12 11:33:43;;;;;;;1999.90;999.90;;;;;;;;;;5135898;28;20201;-33
2021/03/12 11:36:32;;;;;;;1999.90;999.90;;;;;;;;;;5137059;28;20202;-32
2021/03/12 11:39:19;;;;;;;1999.90;999.90;;;;;;;;;;5136632;28;20202;-33
2021/03/12 11:42:06;;;;;;;1999.90;999.90;;;;;;;;;;5136118;28;20655;-35
2021/03/12 11:44:54;;;;;;;1999.90;999.90;;;;;;;;;;5137431;28;20302;-34
2021/03/12 11:47:44;;;;;;;1999.90;999.90;;;;;;;;;;5136663;28;20197;-40
2021/03/12 11:50:50;;;;;;;1999.90;999.90;;;;;;;;;;5136784;28;20186;-36
2021/03/12 11:53:39;;;;;;;1999.90;999.90;;;;;;;;;;5132434;28;20194;-38
2021/03/12 11:56:25;;;;;;;1999.90;999.90;;;;;;;;;;5116066;28;20476;-40
2021/03/12 11:59:19;;;;;;;1999.90;999.90;;;;;;;;;;5117573;28;20478;-41
2021/03/12 12:02:04;;;;;;;1999.90;999.90;;;;;;;;;;5119648;28;20279;-41
2021/03/12 12:04:50;;;;;;;1999.90;999.90;;;;;;;;;;5119442;28;20203;-38
2021/03/12 12:07:40;;;;;;;1999.90;999.90;;;;;;;;;;5119529;28;20265;-35
2021/03/12 12:10:26;;;;;;;1999.90;999.90;;;;;;;;;;5119318;28;20312;-36
2021/03/12 12:13:12;;;;;;;1999.90;999.90;;;;;;;;;;5119288;28;20600;-37
2021/03/12 12:16:00;;;;;;;1999.90;999.90;;;;;;;;;;5119161;28;20197;-36
2021/03/12 12:18:45;;;;;;;1999.90;999.90;;;;;;;;;;5131337;27;20222;-37
2021/03/12 12:21:36;;;;;;;1999.90;999.90;;;;;;;;;;5119970;28;20231;-36
2021/03/12 12:24:23;;;;;;;1999.90;999.90;;;;;;;;;;5119299;28;20348;-37
2021/03/12 12:27:10;;;;;;;1999.90;999.90;;;;;;;;;;5124214;27;20222;-37
2021/03/12 12:29:55;;;;;;;1999.90;999.90;;;;;;;;;;5124526;27;20348;-38
2021/03/12 12:32:44;;;;;;;1999.90;999.90;;;;;;;;;;5119533;28;20198;-33
2021/03/12 12:35:30;;;;;;;1999.90;999.90;;;;;;;;;;5119626;28;20364;-36
2021/03/12 12:38:16;;;;;;;1999.90;999.90;;;;;;;;;;5119634;28;20202;-36
2021/03/12 12:41:02;;;;;;;1999.90;999.90;;;;;;;;;;5119165;28;20643;-40
2021/03/12 12:43:52;;;;;;;1999.90;999.90;;;;;;;;;;5119266;28;20194;-36
2021/03/12 12:46:41;;;;;;;1999.90;999.90;;;;;;;;;;5118685;28;20195;-38
2021/03/12 12:49:27;;;;;;;1999.90;999.90;;;;;;;;;;5118611;28;20202;-36
2021/03/12 12:52:14;;;;;;;1999.90;999.90;;;;;;;;;;5119454;28;20199;-40
2021/03/12 12:54:59;;;;;;;1999.90;999.90;;;;;;;;;;5118918;28;20195;-39
2021/03/12 12:57:50;;;;;;;1999.90;999.90;;;;;;;;;;5122421;27;20203;-38
2021/03/12 13:00:36;;;;;;;1999.90;999.90;;;;;;;;;;5119585;28;20226;-40
2021/03/12 13:03:25;;;;;;;1999.90;999.90;;;;;;;;;;5118612;28;20273;-38
2021/03/12 13:06:12;;;;;;;1999.90;999.90;;;;;;;;;;5119158;28;20264;-38
2021/03/12 13:09:00;;;;;;;1999.90;999.90;;;;;;;;;;5118567;28;20210;-38
2021/03/12 13:11:51;;;;;;;1999.90;999.90;;;;;;;;;;5117794;28;20670;-36
2021/03/12 13:14:38;;;;;;;1999.90;999.90;;;;;;;;;;5118264;28;20247;-38
2021/03/12 13:17:29;;;;;;;1999.90;999.90;;;;;;;;;;5118312;28;20303;-38
2021/03/12 13:20:18;;;;;;;1999.90;999.90;;;;;;;;;;5118204;28;20199;-41
2021/03/12 13:23:04;;;;;;;1999.90;999.90;;;;;;;;;;5128265;27;20210;-39
2021/03/12 13:25:50;;;;;;;1999.90;999.90;;;;;;;;;;5137240;27;20331;-39
2021/03/12 13:28:36;;;;;;;1999.90;999.90;;;;;;;;;;5139532;27;20290;-39
2021/03/12 13:31:23;;;;;;;1999.90;999.90;;;;;;;;;;5139173;27;20255;-36
2021/03/12 13:34:11;;;;;;;1999.90;999.90;;;;;;;;;;5139119;27;20201;-38
2021/03/12 13:36:59;;;;;;;1999.90;999.90;;;;;;;;;;5138933;27;20198;-39
2021/03/12 13:39:44;;;;;;;1999.90;999.90;;;;;;;;;;5139153;27;20202;-39
2021/03/12 13:42:30;;;;;;;1999.90;999.90;;;;;;;;;;5139404;27;20379;-40
2021/03/12 13:45:16;;;;;;;1999.90;999.90;;;;;;;;;;5138249;27;20306;-40
2021/03/12 13:48:03;;;;;;;1999.90;999.90;;;;;;;;;;5138451;27;20483;-38
2021/03/12 13:50:53;;;;;;;1999.90;999.90;;;;;;;;;;5138030;27;20260;-36
2021/03/12 13:53:39;;;;;;;1999.90;999.90;;;;;;;;;;5138026;27;20306;-37
2021/03/12 13:56:27;;;;;;;1999.90;999.90;;;;;;;;;;5138550;27;20201;-35
2021/03/12 13:59:12;;;;;;;1999.90;999.90;;;;;;;;;;5137806;27;20479;-37
2021/03/12 14:02:01;;;;;;;1999.90;999.90;;;;;;;;;;5137811;27;20639;-36
2021/03/12 14:04:48;;;;;;;1999.90;999.90;;;;;;;;;;5138112;27;20195;-40
2021/03/12 14:07:38;;;;;;;1999.90;999.90;;;;;;;;;;5138589;27;20201;-34
2021/03/12 14:10:23;;;;;;;1999.90;999.90;;;;;;;;;;5138194;27;20588;-39
2021/03/12 14:13:10;;;;;;;1999.90;999.90;;;;;;;;;;5137980;27;20209;-38
2021/03/12 14:15:56;;;;;;;1999.90;999.90;;;;;;;;;;5137859;27;20194;-36
2021/03/12 14:18:43;;;;;;;1999.90;999.90;;;;;;;;;;5137599;27;20204;-35
2021/03/12 14:21:33;;;;;;;1999.90;999.90;;;;;;;;;;5137287;27;20260;-39
2021/03/12 14:24:39;;;;;;;1999.90;999.90;;;;;;;;;;5137650;27;20194;-33
2021/03/12 14:27:26;;;;;;;1999.90;999.90;;;;;;;;;;5137699;27;20197;-39
2021/03/12 14:30:13;;;;;;;1999.90;999.90;;;;;;;;;;5133056;27;20204;-40
2021/03/12 14:33:00;;;;;;;1999.90;999.90;;;;;;;;;;5137784;27;20198;-36
2021/03/12 14:35:47;;;;;;;1999.90;999.90;;;;;;;;;;5137478;27;20260;-39
2021/03/12 14:38:36;;;;;;;1999.90;999.90;;;;;;;;;;5137169;27;20198;-41
2021/03/12 14:41:22;;;;;;;1999.90;999.90;;;;;;;;;;5138427;27;20225;-41
2021/03/12 14:44:09;;;;;;;1999.90;999.90;;;;;;;;;;5137580;27;20256;-34
2021/03/12 14:46:54;;;;;;;1999.90;999.90;;;;;;;;;;5136988;27;20201;-38
2021/03/12 14:49:41;;;;;;;1999.90;999.90;;;;;;;;;;5136952;27;20219;-39
2021/03/12 14:52:32;;;;;;;1999.90;999.90;;;;;;;;;;5135868;27;20254;-39
2021/03/12 14:55:21;;;;;;;1999.90;999.90;;;;;;;;;;5137502;27;20206;-41
2021/03/12 14:58:09;;;;;;;1999.90;999.90;;;;;;;;;;5137623;27;20205;-38
2021/03/12 15:00:55;;;;;;;1999.90;999.90;;;;;;;;;;5137586;28;20234;-37
2021/03/12 15:03:41;;;;;;;1999.90;999.90;;;;;;;;;;5137213;28;20246;-37
2021/03/12 15:06:30;;;;;;;1999.90;999.90;;;;;;;;;;5137639;28;20335;-36
2021/03/12 15:09:20;;;;;;;1999.90;999.90;;;;;;;;;;5136386;28;20194;-41
2021/03/12 15:12:08;;;;;;;1999.90;999.90;;;;;;;;;;5137866;28;20193;-39
2021/03/12 15:14:54;;;;;;;1999.90;999.90;;;;;;;;;;5118374;28;20218;-40
2021/03/12 15:17:40;;;;;;;1999.90;999.90;;;;;;;;;;5133711;28;20209;-39
2021/03/12 15:20:27;;;;;;;1999.90;999.90;;;;;;;;;;5138298;27;20682;-40
2021/03/12 15:23:14;;;;;;;1999.90;999.90;;;;;;;;;;5137704;28;20194;-39
2021/03/12 15:26:02;;;;;;;1999.90;999.90;;;;;;;;;;5137291;28;20304;-39
2021/03/12 15:28:51;;;;;;;1999.90;999.90;;;;;;;;;;5134958;28;20331;-37
2021/03/12 15:31:38;;;;;;;1999.90;999.90;;;;;;;;;;5133230;28;20194;-39
2021/03/12 15:34:24;;;;;;;1999.90;999.90;;;;;;;;;;5139248;27;20769;-37
2021/03/12 15:37:12;;;;;;;1999.90;999.90;;;;;;;;;;5140668;27;20587;-41
2021/03/12 15:39:58;;;;;;;1999.90;999.90;;;;;;;;;;5141272;27;20251;-35
2021/03/12 15:42:47;;;;;;;1999.90;999.90;;;;;;;;;;5141113;27;20256;-38